createdAt,value
2023-09-23T00:01:41.924Z,2.15
2023-09-23T00:04:08.640Z,2.08
2023-09-23T00:06:35.467Z,2.70
2023-09-23T00:09:02.072Z,2.22
2023-09-23T00:11:28.680Z,2.60
2023-09-23T00:13:55.582Z,2.67
2023-09-23T00:16:23.673Z,2.00
2023-09-23T00:18:50.264Z,2.50
2023-09-23T00:21:16.887Z,2.40
2023-09-23T00:23:43.482Z,2.70
2023-09-23T00:26:10.082Z,2.05
2023-09-23T00:28:36.756Z,2.53
2023-09-23T00:31:05.131Z,2.00
2023-09-23T00:33:33.242Z,1.80
2023-09-23T00:36:00.041Z,1.63
2023-09-23T00:38:26.711Z,1.77
2023-09-23T00:40:53.347Z,1.83
2023-09-23T00:43:19.997Z,1.95
2023-09-23T00:45:47.640Z,1.63
2023-09-23T00:48:14.252Z,1.85
2023-09-23T00:50:42.408Z,2.22
2023-09-23T00:53:09.077Z,1.70
2023-09-23T00:55:35.810Z,2.65
2023-09-23T00:58:02.443Z,1.55
2023-09-23T01:00:29.348Z,2.33
2023-09-23T01:05:23.133Z,2.35
2023-09-23T01:07:51.108Z,2.00
2023-09-23T01:10:17.965Z,1.60
2023-09-23T01:12:44.929Z,2.22
2023-09-23T01:17:38.345Z,2.08
2023-09-23T01:20:05.910Z,1.88
2023-09-23T01:22:34.010Z,2.22
2023-09-23T01:25:00.629Z,1.80
2023-09-23T01:27:27.263Z,1.77
2023-09-23T01:29:54.952Z,1.63
2023-09-23T01:32:30.819Z,1.60
2023-09-23T01:34:57.533Z,1.38
2023-09-23T01:37:24.160Z,1.58
2023-09-23T01:39:52.227Z,1.50
2023-09-23T01:42:19.823Z,1.48
2023-09-23T01:44:46.454Z,1.80
2023-09-23T01:47:13.175Z,1.40
2023-09-23T01:49:39.976Z,1.60
2023-09-23T01:52:06.691Z,1.75
2023-09-23T01:54:33.285Z,1.70
2023-09-23T01:57:01.653Z,1.67
2023-09-23T01:59:28.315Z,1.60
2023-09-23T02:01:55.120Z,1.58
2023-09-23T02:04:21.772Z,1.52
2023-09-23T02:06:48.389Z,1.17
2023-09-23T02:09:14.985Z,1.60
2023-09-23T02:11:43.057Z,1.45
2023-09-23T02:14:11.062Z,1.48
2023-09-23T02:16:37.757Z,1.50
2023-09-23T02:19:04.455Z,2.00
2023-09-23T02:21:31.043Z,1.25
2023-09-23T02:23:57.752Z,1.40
2023-09-23T02:26:24.408Z,1.63
2023-09-23T02:28:51.192Z,1.42
2023-09-23T02:31:19.352Z,1.50
2023-09-23T02:33:46.916Z,1.30
2023-09-23T02:36:13.528Z,1.75
2023-09-23T02:38:40.127Z,1.70
2023-09-23T02:41:07.632Z,1.33
2023-09-23T02:43:34.719Z,1.40
2023-09-23T02:46:01.333Z,1.20
2023-09-23T02:48:29.377Z,1.30
2023-09-23T02:50:56.818Z,1.00
2023-09-23T02:53:23.444Z,1.45
2023-09-23T02:55:50.101Z,1.33
2023-09-23T02:58:16.704Z,1.63
2023-09-23T03:00:48.741Z,1.13
2023-09-23T03:03:15.462Z,1.60
2023-09-23T03:05:43.615Z,1.25
2023-09-23T03:08:10.280Z,1.65
2023-09-23T03:10:37.663Z,1.42
2023-09-23T03:13:04.299Z,1.40
2023-09-23T03:15:30.980Z,1.42
2023-09-23T03:17:57.642Z,1.30
2023-09-23T03:20:24.286Z,1.23
2023-09-23T03:22:52.438Z,1.33
2023-09-23T03:25:20.293Z,1.10
2023-09-23T03:27:47.825Z,1.40
2023-09-23T03:30:14.581Z,1.58
2023-09-23T03:32:41.447Z,1.50
2023-09-23T03:37:34.800Z,1.27
2023-09-23T03:40:02.972Z,1.23
2023-09-23T03:42:29.570Z,1.40
2023-09-23T03:44:56.144Z,1.05
2023-09-23T03:47:22.855Z,1.20
2023-09-23T03:49:49.572Z,0.93
2023-09-23T03:52:16.231Z,1.00
2023-09-23T03:54:42.810Z,1.15
2023-09-23T03:57:10.866Z,1.30
2023-09-23T03:59:37.501Z,1.05
2023-09-23T04:02:04.282Z,1.10
2023-09-23T04:04:30.929Z,1.27
2023-09-23T04:06:57.559Z,1.27
2023-09-23T04:09:24.169Z,1.10
2023-09-23T04:11:50.806Z,1.00
2023-09-23T04:14:18.858Z,1.10
2023-09-23T04:16:46.443Z,1.30
2023-09-23T04:19:13.044Z,1.30
2023-09-23T04:21:39.634Z,1.10
2023-09-23T04:24:06.333Z,1.23
2023-09-23T04:26:32.916Z,1.60
2023-09-23T04:28:59.546Z,1.25
2023-09-23T04:31:27.606Z,1.35
2023-09-23T04:33:54.244Z,1.05
2023-09-23T04:36:20.963Z,1.00
2023-09-23T04:38:48.466Z,1.10
2023-09-23T04:41:15.175Z,1.10
2023-09-23T04:43:41.823Z,1.38
2023-09-23T04:46:09.415Z,1.30
2023-09-23T04:48:37.407Z,0.90
2023-09-23T04:51:04.018Z,1.17
2023-09-23T04:53:31.447Z,1.05
2023-09-23T04:55:58.149Z,1.73
2023-09-23T04:58:24.771Z,1.20
2023-09-23T05:00:51.706Z,0.95
2023-09-23T05:03:18.354Z,1.10
2023-09-23T05:05:46.403Z,1.10
2023-09-23T05:08:15.550Z,0.90
2023-09-23T05:10:42.174Z,1.33
2023-09-23T05:13:08.805Z,1.42
2023-09-23T05:15:35.557Z,1.05
2023-09-23T05:18:02.191Z,0.98
2023-09-23T05:20:28.813Z,1.20
2023-09-23T05:22:57.567Z,1.23
2023-09-23T05:25:24.251Z,1.40
2023-09-23T05:27:51.173Z,0.95
2023-09-23T05:30:18.688Z,1.25
2023-09-23T05:32:45.323Z,1.00
2023-09-23T05:35:12.103Z,1.00
2023-09-23T05:40:08.710Z,1.05
2023-09-23T05:42:35.295Z,1.10
2023-09-23T05:45:02.100Z,0.95
2023-09-23T05:47:28.783Z,1.00
2023-09-23T05:49:55.466Z,1.10
2023-09-23T05:52:24.414Z,1.05
2023-09-23T05:54:51.001Z,1.10
2023-09-23T05:57:18.971Z,1.10
2023-09-23T05:59:46.397Z,0.98
2023-09-23T06:02:13.048Z,0.95
2023-09-23T06:04:39.718Z,1.00
2023-09-23T06:07:06.362Z,1.00
2023-09-23T06:09:33.085Z,1.10
2023-09-23T06:11:59.670Z,1.17
2023-09-23T06:14:27.688Z,0.95
2023-09-23T06:16:54.550Z,0.85
2023-09-23T06:19:21.613Z,1.45
2023-09-23T06:21:49.723Z,1.20
2023-09-23T06:24:16.318Z,0.90
2023-09-23T06:26:42.961Z,1.00
2023-09-23T06:29:10.568Z,1.02
2023-09-23T06:31:38.547Z,0.90
2023-09-23T06:34:05.290Z,0.80
2023-09-23T06:36:31.892Z,1.00
2023-09-23T06:38:58.519Z,0.80
2023-09-23T06:41:25.129Z,0.82
2023-09-23T06:43:52.627Z,0.77
2023-09-23T06:46:19.321Z,1.00
2023-09-23T06:48:47.334Z,1.13
2023-09-23T06:51:13.974Z,0.65
2023-09-23T06:53:40.619Z,0.80
2023-09-23T06:56:07.257Z,0.80
2023-09-23T06:58:33.874Z,0.80
2023-09-23T07:01:00.617Z,0.98
2023-09-23T07:03:27.291Z,0.85
2023-09-23T07:05:55.320Z,0.80
2023-09-23T07:08:21.963Z,0.90
2023-09-23T07:10:48.799Z,1.20
2023-09-23T07:13:15.522Z,1.10
2023-09-23T07:15:42.415Z,0.80
2023-09-23T07:18:09.545Z,0.85
2023-09-23T07:20:36.598Z,0.80
2023-09-23T07:23:05.041Z,0.90
2023-09-23T07:25:37.820Z,1.40
2023-09-23T07:28:05.780Z,1.13
2023-09-23T07:30:33.430Z,1.10
2023-09-23T07:33:02.456Z,1.63
2023-09-23T07:35:30.849Z,25.13
2023-09-23T07:37:57.725Z,14.02
2023-09-23T07:40:25.843Z,11.23
2023-09-23T07:42:52.468Z,9.57
2023-09-23T07:45:19.168Z,8.93
2023-09-23T07:47:47.039Z,7.38
2023-09-23T07:50:13.721Z,4.07
2023-09-23T07:52:40.326Z,4.38
2023-09-23T07:55:07.603Z,4.05
2023-09-23T07:57:35.592Z,2.25
2023-09-23T08:00:02.480Z,2.28
2023-09-23T08:02:29.199Z,2.60
2023-09-23T08:04:55.839Z,2.33
2023-09-23T08:07:22.488Z,2.47
2023-09-23T08:09:49.146Z,2.03
2023-09-23T08:12:15.712Z,2.20
2023-09-23T08:14:43.687Z,2.13
2023-09-23T08:17:10.454Z,2.10
2023-09-23T08:19:37.118Z,1.60
2023-09-23T08:22:03.746Z,1.90
2023-09-23T08:24:31.367Z,2.00
2023-09-23T08:26:58.010Z,2.10
2023-09-23T08:31:42.226Z,1.88
2023-09-23T08:34:08.861Z,1.50
2023-09-23T08:36:35.502Z,1.50
2023-09-23T08:39:02.104Z,1.75
2023-09-23T08:41:30.210Z,1.55
2023-09-23T08:43:59.079Z,1.50
2023-09-23T08:46:26.809Z,1.58
2023-09-23T08:48:54.991Z,1.42
2023-09-23T08:51:22.600Z,1.75
2023-09-23T08:53:49.761Z,1.45
2023-09-23T08:56:16.798Z,1.20
2023-09-23T09:03:38.012Z,1.40
2023-09-23T09:06:16.357Z,1.10
2023-09-23T09:08:42.987Z,1.23
2023-09-23T09:11:09.777Z,1.20
2023-09-23T09:13:36.772Z,1.17
2023-09-23T09:16:05.181Z,1.50
2023-09-23T09:18:31.929Z,1.10
2023-09-23T09:21:01.382Z,1.20
2023-09-23T09:23:30.344Z,0.95
2023-09-23T09:25:57.129Z,1.35
2023-09-23T09:28:24.369Z,1.17
2023-09-23T09:30:55.787Z,1.08
2023-09-23T09:33:23.760Z,1.17
2023-09-23T09:35:53.660Z,1.13
2023-09-23T09:38:22.811Z,1.10
2023-09-23T09:40:51.368Z,1.13
2023-09-23T09:43:18.268Z,1.00
2023-09-23T09:45:45.028Z,1.30
2023-09-23T09:48:13.833Z,1.30
2023-09-23T09:50:41.990Z,1.20
2023-09-23T09:53:08.654Z,1.17
2023-09-23T09:55:35.623Z,1.10
2023-09-23T09:58:03.769Z,0.90
2023-09-23T10:00:30.396Z,0.90
2023-09-23T10:02:58.905Z,1.10
2023-09-23T10:05:32.700Z,0.93
2023-09-23T10:07:59.379Z,0.98
2023-09-23T10:10:31.808Z,1.00
2023-09-23T10:13:07.239Z,0.90
2023-09-23T10:15:37.570Z,1.00
2023-09-23T10:18:12.550Z,1.10
2023-09-23T10:20:43.334Z,0.90
2023-09-23T10:23:10.554Z,1.08
2023-09-23T10:25:38.242Z,1.10
2023-09-23T10:28:05.845Z,1.00
2023-09-23T10:30:32.505Z,0.90
2023-09-23T10:33:01.471Z,1.20
2023-09-23T10:35:28.289Z,0.90
2023-09-23T10:37:55.196Z,0.88
2023-09-23T10:40:21.835Z,1.00
2023-09-23T10:45:17.981Z,1.10
2023-09-23T10:47:45.888Z,1.25
2023-09-23T10:50:25.881Z,1.08
2023-09-23T10:55:36.863Z,1.20
2023-09-23T10:58:04.087Z,1.00
2023-09-23T11:00:32.771Z,1.05
2023-09-23T11:03:06.672Z,0.82
2023-09-23T11:08:17.610Z,1.00
2023-09-23T11:10:47.142Z,1.20
2023-09-23T11:13:15.170Z,0.95
2023-09-23T11:15:44.747Z,1.55
2023-09-23T11:18:24.016Z,1.05
2023-09-23T11:20:50.832Z,1.15
2023-09-23T11:23:17.529Z,1.05
2023-09-23T11:25:47.781Z,1.20
2023-09-23T11:28:31.651Z,1.50
2023-09-23T11:31:04.246Z,0.93
2023-09-23T11:33:31.068Z,1.00
2023-09-23T11:35:59.590Z,0.93
2023-09-23T11:38:26.243Z,0.98
2023-09-23T11:40:54.540Z,0.80
2023-09-23T11:43:21.165Z,1.15
2023-09-23T11:45:48.034Z,1.20
2023-09-23T11:48:14.683Z,0.80
2023-09-23T11:50:41.359Z,0.95
2023-09-23T11:53:08.061Z,1.60
2023-09-23T11:55:35.032Z,1.17
2023-09-23T11:58:03.102Z,1.33
2023-09-23T12:00:30.374Z,1.15
2023-09-23T12:02:58.612Z,1.55
2023-09-23T12:05:25.642Z,1.33
2023-09-23T12:07:52.459Z,1.30
2023-09-23T12:10:19.120Z,1.10
2023-09-23T12:12:45.704Z,1.65
2023-09-23T12:15:13.669Z,1.40
2023-09-23T12:17:40.432Z,1.00
2023-09-23T12:20:08.434Z,1.15
2023-09-23T12:22:35.109Z,1.10
2023-09-23T12:25:01.750Z,1.55
2023-09-23T12:27:28.431Z,1.45
2023-09-23T12:29:55.301Z,1.52
2023-09-23T12:32:23.435Z,1.33
2023-09-23T12:34:50.178Z,1.25
2023-09-23T12:37:16.913Z,1.58
2023-09-23T12:42:10.385Z,1.27
2023-09-23T12:44:37.135Z,1.30
2023-09-23T12:47:07.029Z,1.40
2023-09-23T12:49:35.133Z,1.20
2023-09-23T12:52:01.787Z,1.80
2023-09-23T12:54:28.464Z,4.82
2023-09-23T12:56:55.063Z,3.90
2023-09-23T12:59:21.699Z,3.30
2023-09-23T13:01:49.156Z,3.20
2023-09-23T13:04:15.825Z,2.80
2023-09-23T13:06:46.070Z,3.28
2023-09-23T13:09:12.830Z,2.50
2023-09-23T13:11:39.506Z,2.03
2023-09-23T13:14:06.369Z,2.60
2023-09-23T13:16:33.867Z,2.20
2023-09-23T13:19:00.569Z,2.45
2023-09-23T13:21:27.246Z,2.35
2023-09-23T13:23:56.052Z,2.00
2023-09-23T13:26:22.696Z,2.30
2023-09-23T13:28:49.534Z,2.40
2023-09-23T13:33:43.105Z,2.20
2023-09-23T13:36:09.887Z,2.40
2023-09-23T13:38:36.605Z,2.35
2023-09-23T13:41:04.643Z,2.10
2023-09-23T13:43:31.262Z,2.28
2023-09-23T13:45:58.047Z,2.40
2023-09-23T13:48:24.754Z,2.05
2023-09-23T13:50:51.532Z,2.05
2023-09-23T13:53:18.209Z,2.80
2023-09-23T13:55:44.844Z,1.98
2023-09-23T13:58:12.828Z,2.20
2023-09-23T14:00:39.468Z,2.50
2023-09-23T14:03:06.154Z,1.92
2023-09-23T14:05:32.931Z,2.20
2023-09-23T14:08:00.614Z,2.30
2023-09-23T14:10:27.422Z,2.08
2023-09-23T14:12:54.088Z,2.35
2023-09-23T14:15:22.148Z,1.98
2023-09-23T14:17:49.139Z,2.00
2023-09-23T14:20:16.367Z,1.70
2023-09-23T14:25:10.345Z,2.10
2023-09-23T14:27:37.017Z,2.22
2023-09-23T14:30:04.222Z,1.83
2023-09-23T14:32:32.335Z,1.92
2023-09-23T14:34:59.096Z,1.92
2023-09-23T14:37:33.199Z,2.03
2023-09-23T14:40:01.296Z,1.90
2023-09-23T14:45:09.950Z,1.90
2023-09-23T14:47:45.339Z,1.85
2023-09-23T14:50:12.348Z,2.03
2023-09-23T14:55:20.244Z,2.15
2023-09-23T14:57:46.960Z,1.85
2023-09-23T15:00:14.547Z,1.70
2023-09-23T15:02:42.703Z,1.77
2023-09-23T15:05:09.791Z,1.67
2023-09-23T15:10:05.062Z,1.58
2023-09-23T15:12:31.714Z,2.03
2023-09-23T15:14:58.487Z,1.63
2023-09-23T15:17:25.336Z,2.03
2023-09-23T15:19:53.602Z,1.42
2023-09-23T15:22:20.308Z,1.48
2023-09-23T15:24:47.015Z,1.77
2023-09-23T15:27:13.742Z,1.42
2023-09-23T15:29:40.401Z,1.83
2023-09-23T15:32:08.254Z,1.70
2023-09-23T15:34:34.954Z,1.30
2023-09-23T15:37:02.939Z,1.30
2023-09-23T15:39:29.688Z,1.38
2023-09-23T15:41:56.431Z,1.48
2023-09-23T15:44:23.200Z,1.40
2023-09-23T15:46:49.850Z,1.50
2023-09-23T15:49:16.465Z,1.63
2023-09-23T15:51:43.072Z,1.58
2023-09-23T15:54:11.259Z,1.50
2023-09-23T15:56:38.033Z,1.50
2023-09-23T15:59:04.799Z,1.73
2023-09-23T16:01:32.338Z,1.30
2023-09-23T16:03:59.264Z,1.33
2023-09-23T16:08:54.231Z,0.88
2023-09-23T16:11:22.520Z,1.10
2023-09-23T16:13:49.256Z,1.15
2023-09-23T16:16:16.085Z,1.02
2023-09-23T16:18:42.903Z,1.20
2023-09-23T16:21:09.560Z,1.00
2023-09-23T16:23:36.275Z,1.20
2023-09-23T16:26:02.942Z,0.98
2023-09-23T16:28:30.910Z,1.00
2023-09-23T16:30:57.597Z,1.08
2023-09-23T16:33:24.276Z,1.20
2023-09-23T16:35:51.266Z,1.00
2023-09-23T16:38:19.687Z,0.80
2023-09-23T16:40:46.596Z,1.10
2023-09-23T16:43:13.222Z,0.90
2023-09-23T16:45:42.073Z,1.10
2023-09-23T16:48:08.888Z,0.93
2023-09-23T16:53:02.251Z,1.00
2023-09-23T16:55:32.716Z,1.00
2023-09-23T16:57:59.310Z,1.23
2023-09-23T17:03:17.907Z,1.08
2023-09-23T17:05:47.045Z,1.00
2023-09-23T17:08:13.771Z,0.82
2023-09-23T17:10:40.430Z,1.05
2023-09-23T17:13:07.839Z,0.98
2023-09-23T17:15:34.501Z,1.02
2023-09-23T17:18:01.367Z,1.73
2023-09-23T17:20:31.132Z,1.20
2023-09-23T17:22:57.906Z,1.13
2023-09-23T17:25:24.654Z,1.00
2023-09-23T17:27:51.380Z,1.60
2023-09-23T17:30:18.176Z,1.17
2023-09-23T17:32:45.031Z,1.00
2023-09-23T17:35:11.749Z,1.00
2023-09-23T17:37:39.791Z,1.00
2023-09-23T17:40:07.852Z,0.80
2023-09-23T17:42:36.813Z,0.93
2023-09-23T17:45:03.903Z,1.00
2023-09-23T17:47:30.620Z,1.30
2023-09-23T17:49:58.182Z,1.15
2023-09-23T17:52:25.073Z,1.15
2023-09-23T17:54:53.163Z,1.05
2023-09-23T17:57:19.821Z,1.15
2023-09-23T17:59:46.473Z,1.00
2023-09-23T18:02:13.134Z,0.95
2023-09-23T18:04:39.874Z,0.90
2023-09-23T18:07:06.525Z,0.93
2023-09-23T18:09:33.157Z,1.10
2023-09-23T18:12:01.299Z,0.88
2023-09-23T18:14:27.976Z,0.90
2023-09-23T18:16:54.739Z,1.00
2023-09-23T18:19:21.423Z,0.80
2023-09-23T18:21:48.118Z,1.08
2023-09-23T18:24:14.794Z,1.00
2023-09-23T18:26:42.579Z,0.88
2023-09-23T18:29:10.657Z,0.98
2023-09-23T18:31:37.313Z,1.00
2023-09-23T18:34:04.107Z,0.80
2023-09-23T18:36:30.733Z,1.10
2023-09-23T18:38:57.405Z,0.90
2023-09-23T18:41:24.090Z,0.98
2023-09-23T18:43:50.697Z,1.00
2023-09-23T18:46:18.805Z,1.02
2023-09-23T18:48:48.662Z,1.00
2023-09-23T18:51:15.377Z,1.10
2023-09-23T18:53:42.120Z,1.00
2023-09-23T18:56:08.818Z,0.90
2023-09-23T18:58:35.483Z,1.15
2023-09-23T19:01:02.838Z,0.90
2023-09-23T19:03:31.760Z,1.05
2023-09-23T19:05:58.698Z,1.20
2023-09-23T19:08:25.525Z,0.80
2023-09-23T19:10:52.166Z,0.82
2023-09-23T19:13:20.099Z,1.13
2023-09-23T19:15:47.613Z,1.10
2023-09-23T19:18:15.202Z,1.00
2023-09-23T19:20:43.508Z,1.05
2023-09-23T19:23:10.502Z,1.00
2023-09-23T19:28:03.744Z,0.90
2023-09-23T19:30:30.420Z,0.93
2023-09-23T19:32:57.946Z,1.20
2023-09-23T19:35:24.650Z,1.30
2023-09-23T19:37:52.669Z,1.13
2023-09-23T19:40:19.305Z,1.15
2023-09-23T19:42:45.913Z,1.20
2023-09-23T19:45:12.737Z,1.05
2023-09-23T19:47:40.298Z,1.27
2023-09-23T19:50:07.406Z,1.33
2023-09-23T19:52:34.114Z,1.05
2023-09-23T19:55:02.141Z,1.40
2023-09-23T19:57:28.756Z,1.20
2023-09-23T19:59:55.769Z,1.20
2023-09-23T20:04:49.031Z,1.25
2023-09-23T20:07:16.411Z,1.50
2023-09-23T20:09:43.064Z,1.38
2023-09-23T20:12:11.067Z,0.98
2023-09-23T20:14:37.974Z,1.40
2023-09-23T20:19:31.715Z,1.08
2023-09-23T20:24:27.192Z,1.40
2023-09-23T20:26:53.852Z,1.15
2023-09-23T20:29:22.663Z,1.20
2023-09-23T20:31:49.500Z,1.33
2023-09-23T20:34:16.497Z,1.15
2023-09-23T20:36:43.127Z,1.45
2023-09-23T20:39:10.607Z,1.67
2023-09-23T20:41:37.261Z,1.17
2023-09-23T20:44:04.522Z,1.55
2023-09-23T20:46:33.567Z,1.08
2023-09-23T20:49:00.397Z,1.23
2023-09-23T20:51:27.324Z,1.60
2023-09-23T20:53:55.785Z,1.25
2023-09-23T20:56:22.635Z,1.20
2023-09-23T20:58:49.255Z,1.67
2023-09-23T21:01:17.010Z,1.30
2023-09-23T21:03:45.337Z,1.27
2023-09-23T21:06:12.184Z,1.30
2023-09-23T21:08:38.990Z,1.50
2023-09-23T21:11:05.693Z,1.30
2023-09-23T21:13:32.412Z,1.30
2023-09-23T21:15:59.853Z,1.30
2023-09-23T21:18:26.578Z,1.38
2023-09-23T21:20:54.812Z,1.45
2023-09-23T21:23:21.716Z,1.67
2023-09-23T21:25:49.663Z,1.30
2023-09-23T21:28:16.384Z,1.75
2023-09-23T21:30:45.414Z,1.52
2023-09-23T21:33:12.218Z,1.42
2023-09-23T21:35:38.934Z,1.60
2023-09-23T21:38:07.332Z,1.60
2023-09-23T21:40:34.009Z,1.50
2023-09-23T21:43:00.629Z,1.80
2023-09-23T21:45:27.250Z,1.25
2023-09-23T21:47:53.928Z,1.58
2023-09-23T21:50:20.601Z,1.60
2023-09-23T21:52:47.298Z,1.38
2023-09-23T21:55:15.601Z,1.40
2023-09-23T21:57:42.235Z,1.60
2023-09-23T22:00:10.523Z,1.40
2023-09-23T22:02:37.198Z,1.50
2023-09-23T22:05:04.068Z,1.42
2023-09-23T22:07:31.554Z,1.40
2023-09-23T22:09:58.718Z,1.63
2023-09-23T22:12:26.746Z,1.70
2023-09-23T22:14:54.215Z,1.65
2023-09-23T22:17:20.886Z,1.58
2023-09-23T22:19:47.532Z,1.40
2023-09-23T22:22:15.193Z,1.50
2023-09-23T22:24:41.872Z,1.60
2023-09-23T22:27:08.498Z,2.05
2023-09-23T22:29:36.494Z,1.50
2023-09-23T22:32:03.129Z,1.40
2023-09-23T22:34:29.767Z,1.33
2023-09-23T22:36:56.479Z,1.50
2023-09-23T22:39:23.087Z,1.73
2023-09-23T22:41:49.875Z,1.60
2023-09-23T22:44:17.375Z,1.23
2023-09-23T22:46:45.352Z,1.50
2023-09-23T22:49:11.969Z,1.63
2023-09-23T22:51:40.961Z,1.23
2023-09-23T22:54:07.745Z,1.27
2023-09-23T22:56:34.524Z,1.40
2023-09-23T22:59:01.289Z,1.38
2023-09-23T23:01:27.981Z,1.33
2023-09-23T23:03:56.023Z,1.65
2023-09-23T23:06:23.588Z,1.55
2023-09-23T23:08:50.364Z,1.23
2023-09-23T23:11:17.273Z,1.20
2023-09-23T23:13:45.870Z,1.27
2023-09-23T23:16:12.873Z,1.42
2023-09-23T23:18:39.514Z,1.35
2023-09-23T23:21:08.359Z,1.52
2023-09-23T23:23:35.062Z,1.30
2023-09-23T23:26:05.849Z,2.13
2023-09-23T23:28:32.606Z,1.60
2023-09-23T23:30:59.343Z,1.30
2023-09-23T23:33:26.017Z,1.35
2023-09-23T23:35:58.447Z,1.60
2023-09-23T23:38:27.274Z,1.60
2023-09-23T23:40:53.964Z,1.60
2023-09-23T23:43:21.588Z,1.70
2023-09-23T23:45:48.212Z,1.60
2023-09-23T23:48:15.207Z,1.48
2023-09-23T23:50:41.928Z,1.42
2023-09-23T23:53:08.587Z,1.52
2023-09-23T23:55:37.220Z,1.30
2023-09-23T23:58:05.739Z,1.63
